sensor_id;sensor_type;location;lat;lon;timestamp;P1;durP1;ratioP1;P2;durP2;ratioP2
8887;SDS011;4480;52.370;9.748;2024-03-02T00:00:31;12.88;;;11.32;;
8887;SDS011;4480;52.370;9.748;2024-03-02T00:02:58;14.63;;;12.15;;
8887;SDS011;4480;52.370;9.748;2024-03-02T00:05:24;11.88;;;10.18;;
8887;SDS011;4480;52.370;9.748;2024-03-02T00:07:52;12.73;;;10.57;;
8887;SDS011;4480;52.370;9.748;2024-03-02T00:10:22;17.17;;;13.07;;
8887;SDS011;4480;52.370;9.748;2024-03-02T00:12:54;17.23;;;12.35;;
8887;SDS011;4480;52.370;9.748;2024-03-02T00:15:28;14.18;;;12.48;;
8887;SDS011;4480;52.370;9.748;2024-03-02T00:18:12;15.02;;;11.23;;
8887;SDS011;4480;52.370;9.748;2024-03-02T00:20:40;15.35;;;11.85;;
8887;SDS011;4480;52.370;9.748;2024-03-02T00:23:07;14.82;;;12.13;;
8887;SDS011;4480;52.370;9.748;2024-03-02T00:25:39;13.90;;;12.48;;
8887;SDS011;4480;52.370;9.748;2024-03-02T00:28:13;13.80;;;12.40;;
8887;SDS011;4480;52.370;9.748;2024-03-02T00:30:54;13.73;;;11.75;;
8887;SDS011;4480;52.370;9.748;2024-03-02T00:33:23;12.23;;;10.70;;
8887;SDS011;4480;52.370;9.748;2024-03-02T00:35:52;16.65;;;13.70;;
8887;SDS011;4480;52.370;9.748;2024-03-02T00:38:20;16.55;;;12.75;;
8887;SDS011;4480;52.370;9.748;2024-03-02T00:40:47;15.10;;;12.18;;
8887;SDS011;4480;52.370;9.748;2024-03-02T00:43:25;17.00;;;12.65;;
8887;SDS011;4480;52.370;9.748;2024-03-02T00:46:12;17.85;;;12.45;;
8887;SDS011;4480;52.370;9.748;2024-03-02T00:48:44;15.70;;;12.20;;
8887;SDS011;4480;52.370;9.748;2024-03-02T00:51:20;17.58;;;13.10;;
8887;SDS011;4480;52.370;9.748;2024-03-02T00:53:48;15.48;;;12.57;;
8887;SDS011;4480;52.370;9.748;2024-03-02T00:56:15;15.32;;;12.10;;
8887;SDS011;4480;52.370;9.748;2024-03-02T00:58:43;15.43;;;12.90;;
8887;SDS011;4480;52.370;9.748;2024-03-02T01:01:09;18.30;;;13.20;;
8887;SDS011;4480;52.370;9.748;2024-03-02T01:03:37;17.35;;;13.35;;
8887;SDS011;4480;52.370;9.748;2024-03-02T01:06:04;19.48;;;13.75;;
8887;SDS011;4480;52.370;9.748;2024-03-02T01:08:32;18.70;;;13.88;;
8887;SDS011;4480;52.370;9.748;2024-03-02T01:10:59;17.27;;;14.43;;
8887;SDS011;4480;52.370;9.748;2024-03-02T01:13:26;15.48;;;13.07;;
8887;SDS011;4480;52.370;9.748;2024-03-02T01:15:53;16.92;;;13.68;;
8887;SDS011;4480;52.370;9.748;2024-03-02T01:18:21;17.40;;;13.65;;
8887;SDS011;4480;52.370;9.748;2024-03-02T01:20:48;19.95;;;15.43;;
8887;SDS011;4480;52.370;9.748;2024-03-02T01:23:16;21.00;;;16.17;;
8887;SDS011;4480;52.370;9.748;2024-03-02T01:25:44;20.25;;;14.50;;
8887;SDS011;4480;52.370;9.748;2024-03-02T01:28:11;17.60;;;14.43;;
8887;SDS011;4480;52.370;9.748;2024-03-02T01:30:38;22.40;;;14.63;;
8887;SDS011;4480;52.370;9.748;2024-03-02T01:33:04;17.00;;;14.45;;
8887;SDS011;4480;52.370;9.748;2024-03-02T01:35:32;16.80;;;13.00;;
8887;SDS011;4480;52.370;9.748;2024-03-02T01:37:59;21.75;;;14.07;;
8887;SDS011;4480;52.370;9.748;2024-03-02T01:40:26;19.25;;;14.85;;
8887;SDS011;4480;52.370;9.748;2024-03-02T01:42:53;16.05;;;13.95;;
8887;SDS011;4480;52.370;9.748;2024-03-02T01:45:23;19.27;;;14.70;;
8887;SDS011;4480;52.370;9.748;2024-03-02T01:47:50;25.45;;;15.23;;
8887;SDS011;4480;52.370;9.748;2024-03-02T01:50:17;19.35;;;15.27;;
8887;SDS011;4480;52.370;9.748;2024-03-02T01:52:53;16.50;;;12.93;;
8887;SDS011;4480;52.370;9.748;2024-03-02T01:55:20;18.65;;;15.75;;
8887;SDS011;4480;52.370;9.748;2024-03-02T01:57:47;18.48;;;13.48;;
8887;SDS011;4480;52.370;9.748;2024-03-02T02:00:15;18.88;;;13.57;;
8887;SDS011;4480;52.370;9.748;2024-03-02T02:02:42;20.63;;;15.05;;
8887;SDS011;4480;52.370;9.748;2024-03-02T02:05:09;23.15;;;16.58;;
8887;SDS011;4480;52.370;9.748;2024-03-02T02:07:36;21.63;;;15.70;;
8887;SDS011;4480;52.370;9.748;2024-03-02T02:10:05;21.52;;;14.18;;
8887;SDS011;4480;52.370;9.748;2024-03-02T02:12:32;20.80;;;15.60;;
8887;SDS011;4480;52.370;9.748;2024-03-02T02:14:59;19.23;;;14.27;;
8887;SDS011;4480;52.370;9.748;2024-03-02T02:17:26;22.38;;;15.98;;
8887;SDS011;4480;52.370;9.748;2024-03-02T02:19:53;23.08;;;15.40;;
8887;SDS011;4480;52.370;9.748;2024-03-02T02:22:21;19.75;;;15.25;;
8887;SDS011;4480;52.370;9.748;2024-03-02T02:24:48;23.88;;;16.42;;
8887;SDS011;4480;52.370;9.748;2024-03-02T02:27:14;18.05;;;13.75;;
8887;SDS011;4480;52.370;9.748;2024-03-02T02:29:41;23.48;;;16.70;;
8887;SDS011;4480;52.370;9.748;2024-03-02T02:32:08;21.13;;;15.65;;
8887;SDS011;4480;52.370;9.748;2024-03-02T02:34:35;22.52;;;14.90;;
8887;SDS011;4480;52.370;9.748;2024-03-02T02:37:01;21.25;;;15.05;;
8887;SDS011;4480;52.370;9.748;2024-03-02T02:39:29;20.80;;;15.52;;
8887;SDS011;4480;52.370;9.748;2024-03-02T02:41:56;19.42;;;14.65;;
8887;SDS011;4480;52.370;9.748;2024-03-02T02:44:23;20.17;;;14.15;;
8887;SDS011;4480;52.370;9.748;2024-03-02T02:46:50;21.15;;;15.00;;
8887;SDS011;4480;52.370;9.748;2024-03-02T02:49:16;20.52;;;13.80;;
8887;SDS011;4480;52.370;9.748;2024-03-02T02:51:43;21.60;;;15.10;;
8887;SDS011;4480;52.370;9.748;2024-03-02T02:54:10;18.88;;;14.02;;
8887;SDS011;4480;52.370;9.748;2024-03-02T02:56:38;24.60;;;15.45;;
8887;SDS011;4480;52.370;9.748;2024-03-02T02:59:05;20.92;;;15.43;;
8887;SDS011;4480;52.370;9.748;2024-03-02T03:01:31;21.25;;;14.55;;
8887;SDS011;4480;52.370;9.748;2024-03-02T03:03:58;21.10;;;15.00;;
8887;SDS011;4480;52.370;9.748;2024-03-02T03:06:25;18.70;;;15.95;;
8887;SDS011;4480;52.370;9.748;2024-03-02T03:08:52;23.00;;;15.80;;
8887;SDS011;4480;52.370;9.748;2024-03-02T03:11:18;23.20;;;14.13;;
8887;SDS011;4480;52.370;9.748;2024-03-02T03:13:47;20.50;;;13.90;;
8887;SDS011;4480;52.370;9.748;2024-03-02T03:16:14;19.65;;;14.27;;
8887;SDS011;4480;52.370;9.748;2024-03-02T03:18:41;21.33;;;14.00;;
8887;SDS011;4480;52.370;9.748;2024-03-02T03:21:08;19.00;;;14.20;;
8887;SDS011;4480;52.370;9.748;2024-03-02T03:23:34;17.73;;;13.45;;
8887;SDS011;4480;52.370;9.748;2024-03-02T03:26:01;17.50;;;13.60;;
8887;SDS011;4480;52.370;9.748;2024-03-02T03:28:28;19.10;;;12.35;;
8887;SDS011;4480;52.370;9.748;2024-03-02T03:30:56;19.00;;;14.05;;
8887;SDS011;4480;52.370;9.748;2024-03-02T03:33:23;18.48;;;13.00;;
8887;SDS011;4480;52.370;9.748;2024-03-02T03:35:49;20.13;;;13.30;;
8887;SDS011;4480;52.370;9.748;2024-03-02T03:38:16;18.80;;;13.70;;
8887;SDS011;4480;52.370;9.748;2024-03-02T03:40:43;17.08;;;13.05;;
8887;SDS011;4480;52.370;9.748;2024-03-02T03:43:09;22.08;;;13.55;;
8887;SDS011;4480;52.370;9.748;2024-03-02T03:45:36;18.40;;;12.20;;
8887;SDS011;4480;52.370;9.748;2024-03-02T03:48:04;20.85;;;13.70;;
8887;SDS011;4480;52.370;9.748;2024-03-02T03:50:31;21.23;;;13.80;;
8887;SDS011;4480;52.370;9.748;2024-03-02T03:52:58;17.73;;;13.27;;
8887;SDS011;4480;52.370;9.748;2024-03-02T03:55:25;18.60;;;12.80;;
8887;SDS011;4480;52.370;9.748;2024-03-02T03:57:52;17.38;;;13.27;;
8887;SDS011;4480;52.370;9.748;2024-03-02T04:00:18;17.65;;;13.20;;
8887;SDS011;4480;52.370;9.748;2024-03-02T04:02:45;20.10;;;13.30;;
8887;SDS011;4480;52.370;9.748;2024-03-02T04:05:13;18.75;;;12.57;;
8887;SDS011;4480;52.370;9.748;2024-03-02T04:07:40;19.25;;;12.40;;
8887;SDS011;4480;52.370;9.748;2024-03-02T04:13:17;19.70;;;14.25;;
8887;SDS011;4480;52.370;9.748;2024-03-02T04:15:44;17.67;;;13.30;;
8887;SDS011;4480;52.370;9.748;2024-03-02T04:18:11;18.10;;;12.55;;
8887;SDS011;4480;52.370;9.748;2024-03-02T04:20:37;18.65;;;12.40;;
8887;SDS011;4480;52.370;9.748;2024-03-02T04:23:04;21.75;;;14.25;;
8887;SDS011;4480;52.370;9.748;2024-03-02T04:25:31;21.80;;;13.65;;
8887;SDS011;4480;52.370;9.748;2024-03-02T04:27:57;19.40;;;13.88;;
8887;SDS011;4480;52.370;9.748;2024-03-02T04:30:25;19.75;;;13.40;;
8887;SDS011;4480;52.370;9.748;2024-03-02T04:32:52;16.45;;;12.57;;
8887;SDS011;4480;52.370;9.748;2024-03-02T04:35:19;18.23;;;13.10;;
8887;SDS011;4480;52.370;9.748;2024-03-02T04:37:46;18.38;;;13.25;;
8887;SDS011;4480;52.370;9.748;2024-03-02T04:40:13;16.95;;;13.13;;
8887;SDS011;4480;52.370;9.748;2024-03-02T04:42:39;19.10;;;13.45;;
8887;SDS011;4480;52.370;9.748;2024-03-02T04:45:07;21.77;;;14.30;;
8887;SDS011;4480;52.370;9.748;2024-03-02T04:47:35;15.15;;;11.95;;
8887;SDS011;4480;52.370;9.748;2024-03-02T04:50:02;19.42;;;13.32;;
8887;SDS011;4480;52.370;9.748;2024-03-02T04:52:29;16.35;;;13.15;;
8887;SDS011;4480;52.370;9.748;2024-03-02T04:54:56;18.40;;;14.18;;
8887;SDS011;4480;52.370;9.748;2024-03-02T04:57:44;19.35;;;14.32;;
8887;SDS011;4480;52.370;9.748;2024-03-02T05:00:12;20.98;;;13.32;;
8887;SDS011;4480;52.370;9.748;2024-03-02T05:02:41;22.10;;;14.55;;
8887;SDS011;4480;52.370;9.748;2024-03-02T05:05:08;18.30;;;13.23;;
8887;SDS011;4480;52.370;9.748;2024-03-02T05:07:34;20.50;;;12.45;;
8887;SDS011;4480;52.370;9.748;2024-03-02T05:10:01;18.17;;;12.52;;
8887;SDS011;4480;52.370;9.748;2024-03-02T05:12:28;24.75;;;13.80;;
8887;SDS011;4480;52.370;9.748;2024-03-02T05:15:21;21.73;;;15.23;;
8887;SDS011;4480;52.370;9.748;2024-03-02T05:17:50;18.65;;;14.45;;
8887;SDS011;4480;52.370;9.748;2024-03-02T05:20:17;21.20;;;14.57;;
8887;SDS011;4480;52.370;9.748;2024-03-02T05:22:43;21.40;;;15.27;;
8887;SDS011;4480;52.370;9.748;2024-03-02T05:25:10;22.83;;;14.80;;
8887;SDS011;4480;52.370;9.748;2024-03-02T05:27:37;22.60;;;14.95;;
8887;SDS011;4480;52.370;9.748;2024-03-02T05:30:04;23.10;;;14.43;;
8887;SDS011;4480;52.370;9.748;2024-03-02T05:32:32;22.80;;;15.52;;
8887;SDS011;4480;52.370;9.748;2024-03-02T05:35:00;21.70;;;15.50;;
8887;SDS011;4480;52.370;9.748;2024-03-02T05:37:28;21.85;;;15.00;;
8887;SDS011;4480;52.370;9.748;2024-03-02T05:39:54;27.67;;;15.88;;
8887;SDS011;4480;52.370;9.748;2024-03-02T05:42:21;22.48;;;15.50;;
8887;SDS011;4480;52.370;9.748;2024-03-02T05:44:48;27.75;;;17.85;;
8887;SDS011;4480;52.370;9.748;2024-03-02T05:47:15;33.33;;;16.42;;
8887;SDS011;4480;52.370;9.748;2024-03-02T05:49:42;26.30;;;16.15;;
8887;SDS011;4480;52.370;9.748;2024-03-02T05:52:10;28.02;;;17.95;;
8887;SDS011;4480;52.370;9.748;2024-03-02T05:54:37;26.10;;;17.25;;
8887;SDS011;4480;52.370;9.748;2024-03-02T05:57:04;23.65;;;17.25;;
8887;SDS011;4480;52.370;9.748;2024-03-02T05:59:51;23.88;;;17.67;;
8887;SDS011;4480;52.370;9.748;2024-03-02T06:02:18;26.58;;;17.77;;
8887;SDS011;4480;52.370;9.748;2024-03-02T06:04:45;24.17;;;16.10;;
8887;SDS011;4480;52.370;9.748;2024-03-02T06:07:13;30.30;;;17.75;;
8887;SDS011;4480;52.370;9.748;2024-03-02T06:09:40;28.48;;;16.67;;
8887;SDS011;4480;52.370;9.748;2024-03-02T06:12:07;25.17;;;17.00;;
8887;SDS011;4480;52.370;9.748;2024-03-02T06:14:34;26.55;;;17.50;;
8887;SDS011;4480;52.370;9.748;2024-03-02T06:17:01;27.38;;;18.13;;
8887;SDS011;4480;52.370;9.748;2024-03-02T06:19:27;24.55;;;17.08;;
8887;SDS011;4480;52.370;9.748;2024-03-02T06:21:54;27.13;;;19.02;;
8887;SDS011;4480;52.370;9.748;2024-03-02T06:24:22;30.27;;;18.38;;
8887;SDS011;4480;52.370;9.748;2024-03-02T06:26:49;26.40;;;16.65;;
8887;SDS011;4480;52.370;9.748;2024-03-02T06:29:15;28.23;;;17.73;;
8887;SDS011;4480;52.370;9.748;2024-03-02T06:31:42;27.98;;;18.00;;
8887;SDS011;4480;52.370;9.748;2024-03-02T06:34:09;28.80;;;18.75;;
8887;SDS011;4480;52.370;9.748;2024-03-02T06:36:36;27.50;;;18.20;;
8887;SDS011;4480;52.370;9.748;2024-03-02T06:39:05;24.92;;;16.75;;
8887;SDS011;4480;52.370;9.748;2024-03-02T06:41:33;25.98;;;16.40;;
8887;SDS011;4480;52.370;9.748;2024-03-02T06:44:00;23.92;;;17.00;;
8887;SDS011;4480;52.370;9.748;2024-03-02T06:46:26;28.05;;;18.33;;
8887;SDS011;4480;52.370;9.748;2024-03-02T06:48:54;23.02;;;17.20;;
8887;SDS011;4480;52.370;9.748;2024-03-02T06:51:20;26.27;;;18.52;;
8887;SDS011;4480;52.370;9.748;2024-03-02T06:53:47;28.52;;;17.75;;
8887;SDS011;4480;52.370;9.748;2024-03-02T06:56:14;27.08;;;18.17;;
8887;SDS011;4480;52.370;9.748;2024-03-02T06:58:42;29.00;;;19.77;;
8887;SDS011;4480;52.370;9.748;2024-03-02T07:01:09;29.10;;;17.60;;
8887;SDS011;4480;52.370;9.748;2024-03-02T07:03:36;22.30;;;15.65;;
8887;SDS011;4480;52.370;9.748;2024-03-02T07:06:04;27.52;;;18.27;;
8887;SDS011;4480;52.370;9.748;2024-03-02T07:08:31;29.65;;;19.35;;
8887;SDS011;4480;52.370;9.748;2024-03-02T07:10:57;21.67;;;16.02;;
8887;SDS011;4480;52.370;9.748;2024-03-02T07:13:24;23.48;;;15.80;;
8887;SDS011;4480;52.370;9.748;2024-03-02T07:15:53;23.23;;;17.05;;
8887;SDS011;4480;52.370;9.748;2024-03-02T07:18:51;25.55;;;17.67;;
8887;SDS011;4480;52.370;9.748;2024-03-02T07:21:20;20.35;;;15.90;;
8887;SDS011;4480;52.370;9.748;2024-03-02T07:23:47;22.00;;;15.82;;
8887;SDS011;4480;52.370;9.748;2024-03-02T07:26:14;21.88;;;16.20;;
8887;SDS011;4480;52.370;9.748;2024-03-02T07:28:41;25.20;;;17.65;;
8887;SDS011;4480;52.370;9.748;2024-03-02T07:31:10;26.58;;;17.77;;
8887;SDS011;4480;52.370;9.748;2024-03-02T07:33:37;25.05;;;16.85;;
8887;SDS011;4480;52.370;9.748;2024-03-02T07:36:03;26.08;;;16.50;;
8887;SDS011;4480;52.370;9.748;2024-03-02T07:38:31;27.13;;;16.60;;
8887;SDS011;4480;52.370;9.748;2024-03-02T07:41:00;20.73;;;15.52;;
8887;SDS011;4480;52.370;9.748;2024-03-02T07:43:27;21.83;;;15.18;;
8887;SDS011;4480;52.370;9.748;2024-03-02T07:45:54;22.52;;;16.80;;
8887;SDS011;4480;52.370;9.748;2024-03-02T07:48:23;22.17;;;15.82;;
8887;SDS011;4480;52.370;9.748;2024-03-02T07:50:50;21.73;;;16.25;;
8887;SDS011;4480;52.370;9.748;2024-03-02T07:53:17;20.80;;;14.77;;
8887;SDS011;4480;52.370;9.748;2024-03-02T07:55:43;23.50;;;16.10;;
8887;SDS011;4480;52.370;9.748;2024-03-02T07:58:10;22.45;;;16.77;;
8887;SDS011;4480;52.370;9.748;2024-03-02T08:00:38;21.65;;;16.20;;
8887;SDS011;4480;52.370;9.748;2024-03-02T08:03:05;22.25;;;15.90;;
8887;SDS011;4480;52.370;9.748;2024-03-02T08:05:33;20.88;;;15.63;;
8887;SDS011;4480;52.370;9.748;2024-03-02T08:08:00;21.10;;;15.57;;
8887;SDS011;4480;52.370;9.748;2024-03-02T08:10:27;20.43;;;14.27;;
8887;SDS011;4480;52.370;9.748;2024-03-02T08:12:54;20.77;;;15.77;;
8887;SDS011;4480;52.370;9.748;2024-03-02T08:15:20;21.17;;;15.67;;
8887;SDS011;4480;52.370;9.748;2024-03-02T08:17:47;21.73;;;15.30;;
8887;SDS011;4480;52.370;9.748;2024-03-02T08:20:14;22.93;;;15.40;;
8887;SDS011;4480;52.370;9.748;2024-03-02T08:22:43;22.00;;;15.53;;
8887;SDS011;4480;52.370;9.748;2024-03-02T08:25:09;20.13;;;15.47;;
8887;SDS011;4480;52.370;9.748;2024-03-02T08:27:36;20.43;;;14.53;;
8887;SDS011;4480;52.370;9.748;2024-03-02T08:30:04;21.00;;;15.40;;
8887;SDS011;4480;52.370;9.748;2024-03-02T08:32:33;19.13;;;14.40;;
8887;SDS011;4480;52.370;9.748;2024-03-02T08:35:00;21.30;;;15.63;;
8887;SDS011;4480;52.370;9.748;2024-03-02T08:37:26;20.13;;;14.50;;
8887;SDS011;4480;52.370;9.748;2024-03-02T08:39:54;22.23;;;15.20;;
8887;SDS011;4480;52.370;9.748;2024-03-02T08:42:21;19.77;;;14.30;;
8887;SDS011;4480;52.370;9.748;2024-03-02T08:44:48;18.87;;;14.77;;
8887;SDS011;4480;52.370;9.748;2024-03-02T08:47:15;20.60;;;12.57;;
8887;SDS011;4480;52.370;9.748;2024-03-02T08:49:42;19.40;;;14.20;;
8887;SDS011;4480;52.370;9.748;2024-03-02T08:52:09;19.40;;;13.97;;
8887;SDS011;4480;52.370;9.748;2024-03-02T08:54:36;23.33;;;15.30;;
8887;SDS011;4480;52.370;9.748;2024-03-02T08:57:04;19.63;;;13.50;;
8887;SDS011;4480;52.370;9.748;2024-03-02T08:59:32;20.47;;;15.03;;
8887;SDS011;4480;52.370;9.748;2024-03-02T09:01:59;19.97;;;14.27;;
8887;SDS011;4480;52.370;9.748;2024-03-02T09:04:26;20.67;;;14.30;;
8887;SDS011;4480;52.370;9.748;2024-03-02T09:06:53;16.23;;;13.07;;
8887;SDS011;4480;52.370;9.748;2024-03-02T09:09:19;17.50;;;13.00;;
8887;SDS011;4480;52.370;9.748;2024-03-02T09:11:46;18.30;;;13.07;;
8887;SDS011;4480;52.370;9.748;2024-03-02T09:14:15;16.63;;;12.80;;
8887;SDS011;4480;52.370;9.748;2024-03-02T09:16:42;17.07;;;12.33;;
8887;SDS011;4480;52.370;9.748;2024-03-02T09:19:09;17.20;;;13.67;;
8887;SDS011;4480;52.370;9.748;2024-03-02T09:21:35;17.83;;;12.73;;
8887;SDS011;4480;52.370;9.748;2024-03-02T09:24:02;17.97;;;13.70;;
8887;SDS011;4480;52.370;9.748;2024-03-02T09:26:31;20.00;;;13.87;;
8887;SDS011;4480;52.370;9.748;2024-03-02T09:28:58;16.30;;;12.40;;
8887;SDS011;4480;52.370;9.748;2024-03-02T09:31:26;14.80;;;12.27;;
8887;SDS011;4480;52.370;9.748;2024-03-02T09:33:53;19.47;;;13.67;;
8887;SDS011;4480;52.370;9.748;2024-03-02T09:36:20;20.50;;;13.17;;
8887;SDS011;4480;52.370;9.748;2024-03-02T09:38:48;18.03;;;12.50;;
8887;SDS011;4480;52.370;9.748;2024-03-02T09:41:15;16.13;;;11.63;;
8887;SDS011;4480;52.370;9.748;2024-03-02T09:43:42;17.60;;;13.30;;
8887;SDS011;4480;52.370;9.748;2024-03-02T09:46:09;16.07;;;12.70;;
8887;SDS011;4480;52.370;9.748;2024-03-02T09:48:37;15.67;;;12.20;;
8887;SDS011;4480;52.370;9.748;2024-03-02T09:51:04;18.17;;;12.70;;
8887;SDS011;4480;52.370;9.748;2024-03-02T09:53:32;14.30;;;12.13;;
8887;SDS011;4480;52.370;9.748;2024-03-02T09:55:59;19.00;;;12.27;;
8887;SDS011;4480;52.370;9.748;2024-03-02T09:58:26;17.20;;;12.67;;
8887;SDS011;4480;52.370;9.748;2024-03-02T10:00:53;19.10;;;13.20;;
8887;SDS011;4480;52.370;9.748;2024-03-02T10:03:20;17.97;;;13.43;;
8887;SDS011;4480;52.370;9.748;2024-03-02T10:05:50;17.27;;;12.67;;
8887;SDS011;4480;52.370;9.748;2024-03-02T10:08:17;16.07;;;12.83;;
8887;SDS011;4480;52.370;9.748;2024-03-02T10:10:44;16.63;;;12.10;;
8887;SDS011;4480;52.370;9.748;2024-03-02T10:13:11;17.83;;;11.83;;
8887;SDS011;4480;52.370;9.748;2024-03-02T10:15:40;18.70;;;13.43;;
8887;SDS011;4480;52.370;9.748;2024-03-02T10:18:08;18.20;;;11.77;;
8887;SDS011;4480;52.370;9.748;2024-03-02T10:20:36;16.70;;;13.00;;
8887;SDS011;4480;52.370;9.748;2024-03-02T10:23:11;17.97;;;13.00;;
8887;SDS011;4480;52.370;9.748;2024-03-02T10:25:38;15.90;;;13.00;;
8887;SDS011;4480;52.370;9.748;2024-03-02T10:28:05;16.63;;;12.47;;
8887;SDS011;4480;52.370;9.748;2024-03-02T10:30:32;16.50;;;12.23;;
8887;SDS011;4480;52.370;9.748;2024-03-02T10:33:00;17.07;;;12.20;;
8887;SDS011;4480;52.370;9.748;2024-03-02T10:35:27;18.37;;;12.30;;
8887;SDS011;4480;52.370;9.748;2024-03-02T10:37:56;16.13;;;13.20;;
8887;SDS011;4480;52.370;9.748;2024-03-02T10:40:26;15.43;;;12.77;;
8887;SDS011;4480;52.370;9.748;2024-03-02T10:42:53;14.50;;;11.47;;
8887;SDS011;4480;52.370;9.748;2024-03-02T10:45:21;17.27;;;12.20;;
8887;SDS011;4480;52.370;9.748;2024-03-02T10:47:49;15.87;;;12.13;;
8887;SDS011;4480;52.370;9.748;2024-03-02T10:50:16;18.10;;;13.97;;
8887;SDS011;4480;52.370;9.748;2024-03-02T10:52:43;14.23;;;11.53;;
8887;SDS011;4480;52.370;9.748;2024-03-02T10:55:11;14.03;;;11.27;;
8887;SDS011;4480;52.370;9.748;2024-03-02T10:57:44;13.70;;;11.30;;
8887;SDS011;4480;52.370;9.748;2024-03-02T11:00:17;13.47;;;11.10;;
8887;SDS011;4480;52.370;9.748;2024-03-02T11:02:50;13.13;;;9.20;;
8887;SDS011;4480;52.370;9.748;2024-03-02T11:05:20;12.87;;;10.00;;
8887;SDS011;4480;52.370;9.748;2024-03-02T11:07:53;11.83;;;10.13;;
8887;SDS011;4480;52.370;9.748;2024-03-02T11:10:23;13.40;;;10.37;;
8887;SDS011;4480;52.370;9.748;2024-03-02T11:12:55;11.93;;;9.43;;
8887;SDS011;4480;52.370;9.748;2024-03-02T11:15:25;12.47;;;9.47;;
8887;SDS011;4480;52.370;9.748;2024-03-02T11:17:53;14.20;;;9.50;;
8887;SDS011;4480;52.370;9.748;2024-03-02T11:20:22;11.90;;;9.93;;
8887;SDS011;4480;52.370;9.748;2024-03-02T11:22:49;15.37;;;10.33;;
8887;SDS011;4480;52.370;9.748;2024-03-02T11:25:23;13.60;;;8.83;;
8887;SDS011;4480;52.370;9.748;2024-03-02T11:28:01;11.10;;;9.27;;
8887;SDS011;4480;52.370;9.748;2024-03-02T11:33:15;10.40;;;8.30;;
8887;SDS011;4480;52.370;9.748;2024-03-02T11:35:49;11.67;;;9.17;;
8887;SDS011;4480;52.370;9.748;2024-03-02T11:38:17;11.30;;;8.95;;
8887;SDS011;4480;52.370;9.748;2024-03-02T11:40:44;10.57;;;9.00;;
8887;SDS011;4480;52.370;9.748;2024-03-02T11:43:12;11.53;;;8.33;;
8887;SDS011;4480;52.370;9.748;2024-03-02T11:45:39;8.00;;;6.97;;
8887;SDS011;4480;52.370;9.748;2024-03-02T11:48:09;10.80;;;8.43;;
8887;SDS011;4480;52.370;9.748;2024-03-02T11:50:39;9.43;;;7.90;;
8887;SDS011;4480;52.370;9.748;2024-03-02T11:53:08;9.50;;;7.37;;
8887;SDS011;4480;52.370;9.748;2024-03-02T11:55:37;9.73;;;6.90;;
8887;SDS011;4480;52.370;9.748;2024-03-02T11:58:05;8.40;;;6.40;;
8887;SDS011;4480;52.370;9.748;2024-03-02T12:00:33;8.90;;;7.70;;
8887;SDS011;4480;52.370;9.748;2024-03-02T12:03:01;10.40;;;7.80;;
8887;SDS011;4480;52.370;9.748;2024-03-02T12:05:28;8.07;;;6.27;;
8887;SDS011;4480;52.370;9.748;2024-03-02T12:07:57;9.90;;;7.03;;
8887;SDS011;4480;52.370;9.748;2024-03-02T12:10:24;9.30;;;6.83;;
8887;SDS011;4480;52.370;9.748;2024-03-02T12:12:55;8.70;;;6.20;;
8887;SDS011;4480;52.370;9.748;2024-03-02T12:15:23;7.83;;;5.73;;
8887;SDS011;4480;52.370;9.748;2024-03-02T12:17:54;8.13;;;6.70;;
8887;SDS011;4480;52.370;9.748;2024-03-02T12:20:21;8.20;;;5.60;;
8887;SDS011;4480;52.370;9.748;2024-03-02T12:22:49;6.53;;;5.80;;
8887;SDS011;4480;52.370;9.748;2024-03-02T12:25:17;7.57;;;5.90;;
8887;SDS011;4480;52.370;9.748;2024-03-02T12:27:44;8.50;;;5.40;;
8887;SDS011;4480;52.370;9.748;2024-03-02T12:30:12;6.80;;;5.57;;
8887;SDS011;4480;52.370;9.748;2024-03-02T12:32:39;6.47;;;5.80;;
8887;SDS011;4480;52.370;9.748;2024-03-02T12:35:08;9.07;;;5.97;;
8887;SDS011;4480;52.370;9.748;2024-03-02T12:37:43;7.87;;;5.70;;
8887;SDS011;4480;52.370;9.748;2024-03-02T12:40:10;9.37;;;5.50;;
8887;SDS011;4480;52.370;9.748;2024-03-02T12:42:38;7.80;;;5.70;;
8887;SDS011;4480;52.370;9.748;2024-03-02T12:45:07;10.63;;;5.97;;
8887;SDS011;4480;52.370;9.748;2024-03-02T12:47:34;9.63;;;5.80;;
8887;SDS011;4480;52.370;9.748;2024-03-02T12:50:01;5.77;;;5.17;;
8887;SDS011;4480;52.370;9.748;2024-03-02T12:52:30;5.80;;;4.90;;
8887;SDS011;4480;52.370;9.748;2024-03-02T12:54:59;7.63;;;4.90;;
8887;SDS011;4480;52.370;9.748;2024-03-02T12:57:27;7.27;;;5.20;;
8887;SDS011;4480;52.370;9.748;2024-03-02T12:59:57;7.93;;;5.40;;
8887;SDS011;4480;52.370;9.748;2024-03-02T13:02:27;6.17;;;4.33;;
8887;SDS011;4480;52.370;9.748;2024-03-02T13:04:54;5.30;;;4.57;;
8887;SDS011;4480;52.370;9.748;2024-03-02T13:07:21;5.53;;;4.53;;
8887;SDS011;4480;52.370;9.748;2024-03-02T13:09:50;5.80;;;4.23;;
8887;SDS011;4480;52.370;9.748;2024-03-02T13:12:17;5.10;;;4.10;;
8887;SDS011;4480;52.370;9.748;2024-03-02T13:14:47;8.90;;;3.43;;
8887;SDS011;4480;52.370;9.748;2024-03-02T13:17:15;5.40;;;4.07;;
8887;SDS011;4480;52.370;9.748;2024-03-02T13:19:43;5.97;;;3.93;;
8887;SDS011;4480;52.370;9.748;2024-03-02T13:22:17;4.57;;;3.60;;
8887;SDS011;4480;52.370;9.748;2024-03-02T13:24:44;5.80;;;3.90;;
8887;SDS011;4480;52.370;9.748;2024-03-02T13:27:12;3.30;;;3.00;;
8887;SDS011;4480;52.370;9.748;2024-03-02T13:29:39;5.37;;;3.20;;
8887;SDS011;4480;52.370;9.748;2024-03-02T13:32:06;4.10;;;3.40;;
8887;SDS011;4480;52.370;9.748;2024-03-02T13:34:34;5.37;;;3.53;;
8887;SDS011;4480;52.370;9.748;2024-03-02T13:37:01;4.80;;;3.53;;
8887;SDS011;4480;52.370;9.748;2024-03-02T13:39:29;5.33;;;3.80;;
8887;SDS011;4480;52.370;9.748;2024-03-02T13:41:57;5.63;;;3.23;;
8887;SDS011;4480;52.370;9.748;2024-03-02T13:44:30;6.70;;;4.10;;
8887;SDS011;4480;52.370;9.748;2024-03-02T13:46:58;4.03;;;3.30;;
8887;SDS011;4480;52.370;9.748;2024-03-02T13:49:25;4.43;;;3.60;;
8887;SDS011;4480;52.370;9.748;2024-03-02T13:51:58;4.07;;;3.33;;
8887;SDS011;4480;52.370;9.748;2024-03-02T13:54:25;8.00;;;3.10;;
8887;SDS011;4480;52.370;9.748;2024-03-02T13:56:52;5.03;;;3.30;;
8887;SDS011;4480;52.370;9.748;2024-03-02T13:59:19;5.23;;;3.30;;
8887;SDS011;4480;52.370;9.748;2024-03-02T14:01:49;6.00;;;4.03;;
8887;SDS011;4480;52.370;9.748;2024-03-02T14:04:16;5.07;;;4.03;;
8887;SDS011;4480;52.370;9.748;2024-03-02T14:06:42;4.30;;;3.00;;
8887;SDS011;4480;52.370;9.748;2024-03-02T14:09:09;4.40;;;3.10;;
8887;SDS011;4480;52.370;9.748;2024-03-02T14:11:36;3.70;;;3.33;;
8887;SDS011;4480;52.370;9.748;2024-03-02T14:14:03;4.70;;;3.13;;
8887;SDS011;4480;52.370;9.748;2024-03-02T14:16:30;4.60;;;3.60;;
8887;SDS011;4480;52.370;9.748;2024-03-02T14:18:58;4.00;;;3.53;;
8887;SDS011;4480;52.370;9.748;2024-03-02T14:21:25;8.23;;;3.47;;
8887;SDS011;4480;52.370;9.748;2024-03-02T14:23:52;5.60;;;3.93;;
8887;SDS011;4480;52.370;9.748;2024-03-02T14:26:18;6.53;;;3.20;;
8887;SDS011;4480;52.370;9.748;2024-03-02T14:28:45;4.43;;;3.77;;
8887;SDS011;4480;52.370;9.748;2024-03-02T14:31:12;8.10;;;3.80;;
8887;SDS011;4480;52.370;9.748;2024-03-02T14:33:39;3.90;;;3.50;;
8887;SDS011;4480;52.370;9.748;2024-03-02T14:36:07;4.50;;;3.20;;
8887;SDS011;4480;52.370;9.748;2024-03-02T14:38:34;4.10;;;2.80;;
8887;SDS011;4480;52.370;9.748;2024-03-02T14:41:01;5.00;;;3.43;;
8887;SDS011;4480;52.370;9.748;2024-03-02T14:43:28;5.00;;;3.23;;
8887;SDS011;4480;52.370;9.748;2024-03-02T14:45:55;4.63;;;3.70;;
8887;SDS011;4480;52.370;9.748;2024-03-02T14:48:23;3.80;;;3.40;;
8887;SDS011;4480;52.370;9.748;2024-03-02T14:50:50;4.00;;;3.60;;
8887;SDS011;4480;52.370;9.748;2024-03-02T14:53:18;4.50;;;3.27;;
8887;SDS011;4480;52.370;9.748;2024-03-02T14:55:45;5.10;;;4.00;;
8887;SDS011;4480;52.370;9.748;2024-03-02T14:58:12;5.43;;;3.97;;
8887;SDS011;4480;52.370;9.748;2024-03-02T15:00:39;4.07;;;3.40;;
8887;SDS011;4480;52.370;9.748;2024-03-02T15:03:05;5.93;;;3.77;;
8887;SDS011;4480;52.370;9.748;2024-03-02T15:05:33;9.20;;;4.50;;